AAL406 KJFK-KRDU
Flight info
| Callsign | AAL406 |
|---|---|
| Flight time | 1h 16m |
| Altitude | 40000 |
| Route | WAVEY EMJAY Q167 ZJAAY TAQLE3 |
| Aircraft | B77W/H-SDE1E2E3FGHIJ2J3J4J5M1RWXY/LB1D1 |
Departure
| Time | 2026-05-06 23:59 |
|---|---|
| Airport | John F. Kennedy International Airport (KJFK) |
Arrival
| Time | 2026-05-07 01:15 |
|---|---|
| Airport | Raleigh-Durham International Airport (KRDU) |
| Time | Latitude | Longitude | Altitude | Speed | Heading |
|---|---|---|---|---|---|
| 2026-05-06 23:37 | 40.63846 | -73.78028 | 21 ft | 0 kts | 263° |
| 2026-05-06 23:44 | 40.63847 | -73.78021 | 23 ft | 4 kts | 261° |
| 2026-05-06 23:45 | 40.63853 | -73.77987 | 24 ft | 4 kts | 247° |
| 2026-05-06 23:45 | 40.63865 | -73.77959 | 24 ft | 4 kts | 225° |
| 2026-05-06 23:45 | 40.63883 | -73.77940 | 26 ft | 4 kts | 198° |
| 2026-05-06 23:45 | 40.63908 | -73.77935 | 23 ft | 4 kts | 177° |
| 2026-05-06 23:46 | 40.63932 | -73.77938 | 23 ft | 1 kts | 172° |
| 2026-05-06 23:46 | 40.63933 | -73.77938 | 23 ft | 0 kts | 172° |
| 2026-05-06 23:47 | 40.63913 | -73.77936 | 26 ft | 0 kts | 176° |
| 2026-05-06 23:48 | 40.63840 | -73.77926 | 22 ft | 25 kts | 172° |
| 2026-05-06 23:48 | 40.63620 | -73.77889 | 23 ft | 17 kts | 168° |
| 2026-05-06 23:48 | 40.63605 | -73.77883 | 23 ft | 0 kts | 160° |
| 2026-05-06 23:49 | 40.63571 | -73.77851 | 24 ft | 15 kts | 135° |
| 2026-05-06 23:49 | 40.63529 | -73.77701 | 26 ft | 16 kts | 59° |
| 2026-05-06 23:49 | 40.63662 | -73.77563 | 25 ft | 34 kts | 46° |
| 2026-05-06 23:49 | 40.63787 | -73.77487 | 21 ft | 13 kts | 27° |
| 2026-05-06 23:50 | 40.63916 | -73.77389 | 23 ft | 24 kts | 31° |
| 2026-05-06 23:50 | 40.64142 | -73.77210 | 27 ft | 23 kts | 33° |
| 2026-05-06 23:50 | 40.64292 | -73.77095 | 24 ft | 23 kts | 29° |
| 2026-05-06 23:51 | 40.64361 | -73.77039 | 24 ft | 15 kts | 31° |
| 2026-05-06 23:51 | 40.64492 | -73.76989 | 22 ft | 19 kts | 2° |
| 2026-05-06 23:51 | 40.64607 | -73.76987 | 22 ft | 16 kts | 359° |
| 2026-05-06 23:51 | 40.64724 | -73.77034 | 24 ft | 0 kts | 326° |
| 2026-05-06 23:52 | 40.64729 | -73.77037 | 23 ft | 6 kts | 326° |
| 2026-05-06 23:52 | 40.64819 | -73.77068 | 27 ft | 18 kts | 31° |
| 2026-05-06 23:52 | 40.64894 | -73.76945 | 28 ft | 16 kts | 55° |
| 2026-05-06 23:52 | 40.64981 | -73.76779 | 23 ft | 11 kts | 73° |
| 2026-05-06 23:53 | 40.64982 | -73.76738 | 21 ft | 8 kts | 97° |
| 2026-05-06 23:53 | 40.64981 | -73.76736 | 21 ft | 0 kts | 102° |
| 2026-05-06 23:58 | 40.64969 | -73.76685 | 23 ft | 17 kts | 104° |
| 2026-05-06 23:58 | 40.65080 | -73.76539 | 20 ft | 21 kts | 39° |
| 2026-05-06 23:58 | 40.65058 | -73.76393 | 22 ft | 19 kts | 133° |
| 2026-05-06 23:58 | 40.64875 | -73.76476 | 20 ft | 44 kts | 214° |
| 2026-05-06 23:59 | 40.64275 | -73.76937 | 26 ft | 163 kts | 210° |
| 2026-05-06 23:59 | 40.63094 | -73.77853 | 939 ft | 202 kts | 212° |
| 2026-05-06 23:59 | 40.61906 | -73.78886 | 2810 ft | 213 kts | 219° |
| 2026-05-06 23:59 | 40.60674 | -73.80057 | 3825 ft | 223 kts | 221° |
| 2026-05-07 00:00 | 40.59379 | -73.81317 | 4575 ft | 240 kts | 220° |
| 2026-05-07 00:00 | 40.57995 | -73.82623 | 4910 ft | 247 kts | 220° |
| 2026-05-07 00:00 | 40.56478 | -73.83719 | 4913 ft | 256 kts | 200° |
| 2026-05-07 00:00 | 40.55257 | -73.83855 | 5196 ft | 268 kts | 179° |
| 2026-05-07 00:01 | 40.52945 | -73.82449 | 6653 ft | 292 kts | 143° |
| 2026-05-07 00:01 | 40.51731 | -73.80246 | 7794 ft | 307 kts | 118° |
| 2026-05-07 00:01 | 40.51025 | -73.77543 | 8835 ft | 319 kts | 110° |
| 2026-05-07 00:01 | 40.50453 | -73.74677 | 9866 ft | 329 kts | 108° |
| 2026-05-07 00:02 | 40.49901 | -73.71702 | 10736 ft | 344 kts | 108° |
| 2026-05-07 00:02 | 40.49144 | -73.68635 | 11057 ft | 363 kts | 125° |
| 2026-05-07 00:02 | 40.47484 | -73.66078 | 11235 ft | 377 kts | 147° |
| 2026-05-07 00:02 | 40.45359 | -73.63900 | 11779 ft | 397 kts | 149° |
| 2026-05-07 00:03 | 40.43162 | -73.61652 | 12018 ft | 398 kts | 148° |
| 2026-05-07 00:03 | 40.41063 | -73.59392 | 11984 ft | 379 kts | 147° |
| 2026-05-07 00:03 | 40.39145 | -73.57236 | 11930 ft | 350 kts | 147° |
| 2026-05-07 00:03 | 40.37337 | -73.55179 | 12355 ft | 338 kts | 148° |
| 2026-05-07 00:04 | 40.35577 | -73.53174 | 13521 ft | 330 kts | 148° |
| 2026-05-07 00:04 | 40.33827 | -73.51185 | 14384 ft | 337 kts | 148° |
| 2026-05-07 00:04 | 40.32038 | -73.49154 | 15278 ft | 346 kts | 148° |
| 2026-05-07 00:04 | 40.30149 | -73.47016 | 15675 ft | 373 kts | 147° |
| 2026-05-07 00:05 | 40.28105 | -73.44695 | 15889 ft | 405 kts | 146° |
| 2026-05-07 00:05 | 40.25909 | -73.42191 | 16235 ft | 429 kts | 146° |
| 2026-05-07 00:05 | 40.23624 | -73.39586 | 16987 ft | 441 kts | 146° |
| 2026-05-07 00:05 | 40.21190 | -73.37104 | 17852 ft | 444 kts | 151° |
| 2026-05-07 00:06 | 40.18642 | -73.34786 | 18713 ft | 449 kts | 152° |
| 2026-05-07 00:06 | 40.16048 | -73.32454 | 19522 ft | 453 kts | 153° |
| 2026-05-07 00:06 | 40.13282 | -73.30579 | 20087 ft | 444 kts | 171° |
| 2026-05-07 00:06 | 40.10290 | -73.29975 | 20829 ft | 430 kts | 189° |
| 2026-05-07 00:07 | 40.07390 | -73.30490 | 21702 ft | 416 kts | 204° |
| 2026-05-07 00:07 | 40.04703 | -73.31744 | 22546 ft | 407 kts | 214° |
| 2026-05-07 00:07 | 40.02389 | -73.33667 | 22886 ft | 393 kts | 227° |
| 2026-05-07 00:07 | 40.00324 | -73.36054 | 23401 ft | 399 kts | 229° |
| 2026-05-07 00:08 | 39.98254 | -73.38473 | 24180 ft | 400 kts | 229° |
| 2026-05-07 00:08 | 39.96169 | -73.40873 | 24953 ft | 401 kts | 229° |
| 2026-05-07 00:08 | 39.94055 | -73.43270 | 25664 ft | 404 kts | 229° |
| 2026-05-07 00:08 | 39.91916 | -73.45672 | 26277 ft | 409 kts | 228° |
| 2026-05-07 00:09 | 39.89746 | -73.48093 | 26880 ft | 413 kts | 228° |
| 2026-05-07 00:09 | 39.87551 | -73.50535 | 27502 ft | 416 kts | 228° |
| 2026-05-07 00:09 | 39.85346 | -73.52986 | 28101 ft | 419 kts | 228° |
| 2026-05-07 00:09 | 39.83122 | -73.55459 | 28674 ft | 422 kts | 228° |
| 2026-05-07 00:10 | 39.80884 | -73.57948 | 29167 ft | 426 kts | 228° |
| 2026-05-07 00:10 | 39.78620 | -73.60465 | 29657 ft | 429 kts | 228° |
| 2026-05-07 00:10 | 39.77116 | -73.62134 | 29967 ft | 431 kts | 228° |
| 2026-05-07 00:10 | 39.74824 | -73.64677 | 30361 ft | 433 kts | 228° |
| 2026-05-07 00:11 | 39.72534 | -73.67213 | 30837 ft | 432 kts | 229° |
| 2026-05-07 00:11 | 39.70250 | -73.69737 | 31389 ft | 430 kts | 229° |
| 2026-05-07 00:11 | 39.67236 | -73.73066 | 31917 ft | 430 kts | 229° |
| 2026-05-07 00:11 | 39.64963 | -73.75576 | 31891 ft | 428 kts | 229° |
| 2026-05-07 00:12 | 39.61171 | -73.79762 | 31894 ft | 428 kts | 229° |
| 2026-05-07 00:12 | 39.56635 | -73.84762 | 31896 ft | 428 kts | 229° |
| 2026-05-07 00:13 | 39.52085 | -73.89766 | 31895 ft | 429 kts | 229° |
| 2026-05-07 00:13 | 39.47525 | -73.94772 | 31896 ft | 429 kts | 229° |
| 2026-05-07 00:14 | 39.42937 | -73.99809 | 31906 ft | 443 kts | 229° |
| 2026-05-07 00:14 | 39.38172 | -74.05027 | 31894 ft | 449 kts | 229° |
| 2026-05-07 00:15 | 39.33415 | -74.10226 | 31889 ft | 447 kts | 229° |
| 2026-05-07 00:15 | 39.28669 | -74.15410 | 31891 ft | 446 kts | 229° |
| 2026-05-07 00:16 | 39.23934 | -74.20575 | 31887 ft | 445 kts | 229° |
| 2026-05-07 00:16 | 39.19229 | -74.25698 | 31889 ft | 445 kts | 229° |
| 2026-05-07 00:17 | 39.14488 | -74.30851 | 31889 ft | 446 kts | 229° |
| 2026-05-07 00:17 | 39.09735 | -74.36007 | 31897 ft | 447 kts | 229° |
| 2026-05-07 00:18 | 39.04976 | -74.41160 | 31900 ft | 447 kts | 229° |
| 2026-05-07 00:18 | 39.00206 | -74.46314 | 31899 ft | 448 kts | 229° |
| 2026-05-07 00:19 | 38.95435 | -74.51462 | 31902 ft | 447 kts | 229° |
| 2026-05-07 00:19 | 38.90755 | -74.56688 | 31904 ft | 444 kts | 231° |
| 2026-05-07 00:20 | 38.86226 | -74.62075 | 31900 ft | 443 kts | 231° |
| 2026-05-07 00:20 | 38.81685 | -74.67427 | 31899 ft | 444 kts | 231° |
| 2026-05-07 00:21 | 38.77114 | -74.72757 | 31899 ft | 444 kts | 230° |
| 2026-05-07 00:21 | 38.72423 | -74.77953 | 31901 ft | 448 kts | 228° |
| 2026-05-07 00:22 | 38.67608 | -74.82944 | 31903 ft | 449 kts | 227° |
| 2026-05-07 00:22 | 38.62756 | -74.87970 | 31909 ft | 449 kts | 227° |
| 2026-05-07 00:23 | 38.57907 | -74.93007 | 31902 ft | 449 kts | 227° |
| 2026-05-07 00:23 | 38.53058 | -74.98040 | 31902 ft | 449 kts | 227° |
| 2026-05-07 00:24 | 38.48347 | -75.03219 | 31792 ft | 442 kts | 230° |
| 2026-05-07 00:24 | 38.46029 | -75.05764 | 31299 ft | 439 kts | 227° |
| 2026-05-07 00:24 | 38.43598 | -75.08132 | 30543 ft | 440 kts | 225° |
| 2026-05-07 00:25 | 38.41140 | -75.10461 | 29772 ft | 441 kts | 224° |
| 2026-05-07 00:25 | 38.38677 | -75.12779 | 29024 ft | 438 kts | 224° |
| 2026-05-07 00:25 | 38.36235 | -75.15076 | 28422 ft | 434 kts | 224° |
| 2026-05-07 00:25 | 38.33818 | -75.17354 | 27865 ft | 430 kts | 224° |
| 2026-05-07 00:26 | 38.31422 | -75.19620 | 27321 ft | 427 kts | 224° |
| 2026-05-07 00:26 | 38.29045 | -75.21872 | 26753 ft | 425 kts | 224° |
| 2026-05-07 00:26 | 38.26679 | -75.24115 | 26238 ft | 423 kts | 224° |
| 2026-05-07 00:26 | 38.24318 | -75.26352 | 26030 ft | 425 kts | 224° |
| 2026-05-07 00:27 | 38.21953 | -75.28591 | 25905 ft | 423 kts | 224° |
| 2026-05-07 00:27 | 38.19600 | -75.30813 | 25908 ft | 420 kts | 224° |
| 2026-05-07 00:27 | 38.17247 | -75.33037 | 25902 ft | 422 kts | 224° |
| 2026-05-07 00:27 | 38.14889 | -75.35265 | 25898 ft | 423 kts | 224° |
| 2026-05-07 00:28 | 38.12528 | -75.37493 | 25910 ft | 423 kts | 224° |
| 2026-05-07 00:28 | 38.10164 | -75.39722 | 25914 ft | 423 kts | 224° |
| 2026-05-07 00:28 | 38.07925 | -75.41829 | 25913 ft | 423 kts | 224° |
| 2026-05-07 00:28 | 38.05577 | -75.44039 | 25911 ft | 423 kts | 224° |
| 2026-05-07 00:29 | 38.03306 | -75.46384 | 25916 ft | 419 kts | 228° |
| 2026-05-07 00:29 | 38.01159 | -75.48870 | 25917 ft | 417 kts | 230° |
| 2026-05-07 00:30 | 37.94849 | -75.56475 | 25917 ft | 418 kts | 230° |
| 2026-05-07 00:30 | 37.92725 | -75.58997 | 25916 ft | 419 kts | 229° |
| 2026-05-07 00:30 | 37.90592 | -75.61507 | 25915 ft | 419 kts | 229° |
| 2026-05-07 00:30 | 37.88448 | -75.64016 | 25916 ft | 420 kts | 229° |
| 2026-05-07 00:31 | 37.86330 | -75.66485 | 25915 ft | 420 kts | 229° |
| 2026-05-07 00:31 | 37.84179 | -75.68988 | 25914 ft | 421 kts | 229° |
| 2026-05-07 00:31 | 37.82024 | -75.71493 | 25916 ft | 421 kts | 229° |
| 2026-05-07 00:31 | 37.79867 | -75.74000 | 25910 ft | 421 kts | 229° |
| 2026-05-07 00:32 | 37.77722 | -75.76486 | 25888 ft | 406 kts | 229° |
| 2026-05-07 00:32 | 37.75746 | -75.78753 | 25863 ft | 363 kts | 229° |
| 2026-05-07 00:32 | 37.73969 | -75.80791 | 25863 ft | 329 kts | 230° |
| 2026-05-07 00:32 | 37.72318 | -75.82707 | 25884 ft | 318 kts | 231° |
| 2026-05-07 00:33 | 37.70687 | -75.84620 | 25925 ft | 325 kts | 231° |
| 2026-05-07 00:33 | 37.68998 | -75.86603 | 25926 ft | 334 kts | 230° |
| 2026-05-07 00:33 | 37.67295 | -75.88583 | 25905 ft | 331 kts | 230° |
| 2026-05-07 00:33 | 37.65609 | -75.90532 | 25900 ft | 326 kts | 230° |
| 2026-05-07 00:34 | 37.63946 | -75.92452 | 25902 ft | 323 kts | 230° |
| 2026-05-07 00:34 | 37.62289 | -75.94367 | 25917 ft | 323 kts | 230° |
| 2026-05-07 00:34 | 37.60636 | -75.96291 | 25919 ft | 322 kts | 232° |
| 2026-05-07 00:34 | 37.59133 | -75.98358 | 25916 ft | 319 kts | 237° |
| 2026-05-07 00:35 | 37.57735 | -76.00531 | 25919 ft | 318 kts | 238° |
| 2026-05-07 00:35 | 37.56365 | -76.02724 | 25922 ft | 319 kts | 238° |
| 2026-05-07 00:35 | 37.54990 | -76.04921 | 25884 ft | 319 kts | 238° |
| 2026-05-07 00:35 | 37.53610 | -76.07107 | 25675 ft | 318 kts | 238° |
| 2026-05-07 00:36 | 37.52226 | -76.09283 | 25411 ft | 319 kts | 238° |
| 2026-05-07 00:36 | 37.50835 | -76.11456 | 25179 ft | 318 kts | 238° |
| 2026-05-07 00:36 | 37.49442 | -76.13621 | 24983 ft | 317 kts | 238° |
| 2026-05-07 00:36 | 37.48055 | -76.15776 | 24773 ft | 316 kts | 238° |
| 2026-05-07 00:37 | 37.46671 | -76.17925 | 24567 ft | 315 kts | 238° |
| 2026-05-07 00:37 | 37.45289 | -76.20065 | 24363 ft | 315 kts | 238° |
| 2026-05-07 00:37 | 37.43907 | -76.22200 | 24162 ft | 314 kts | 238° |
| 2026-05-07 00:37 | 37.42547 | -76.24298 | 24027 ft | 312 kts | 238° |
| 2026-05-07 00:38 | 37.41183 | -76.26401 | 23983 ft | 310 kts | 238° |
| 2026-05-07 00:38 | 37.39797 | -76.28541 | 23937 ft | 312 kts | 238° |
| 2026-05-07 00:38 | 37.38423 | -76.30663 | 23926 ft | 313 kts | 238° |
| 2026-05-07 00:38 | 37.37063 | -76.32759 | 23924 ft | 314 kts | 238° |
| 2026-05-07 00:39 | 37.35679 | -76.34892 | 23923 ft | 315 kts | 238° |
| 2026-05-07 00:39 | 37.34274 | -76.37056 | 23919 ft | 316 kts | 238° |
| 2026-05-07 00:39 | 37.32901 | -76.39167 | 23917 ft | 316 kts | 238° |
| 2026-05-07 00:39 | 37.31509 | -76.41307 | 23921 ft | 316 kts | 238° |
| 2026-05-07 00:40 | 37.30116 | -76.43451 | 23921 ft | 316 kts | 238° |
| 2026-05-07 00:40 | 37.28725 | -76.45588 | 23922 ft | 317 kts | 238° |
| 2026-05-07 00:40 | 37.27327 | -76.47729 | 23924 ft | 317 kts | 238° |
| 2026-05-07 00:40 | 37.25932 | -76.49870 | 23921 ft | 317 kts | 238° |
| 2026-05-07 00:41 | 37.24551 | -76.52015 | 23925 ft | 316 kts | 238° |
| 2026-05-07 00:41 | 37.23166 | -76.54179 | 23832 ft | 321 kts | 238° |
| 2026-05-07 00:41 | 37.21784 | -76.56342 | 23533 ft | 311 kts | 238° |
| 2026-05-07 00:41 | 37.20450 | -76.58417 | 22842 ft | 300 kts | 238° |
| 2026-05-07 00:42 | 37.19149 | -76.60445 | 22300 ft | 299 kts | 238° |
| 2026-05-07 00:42 | 37.17835 | -76.62505 | 22156 ft | 306 kts | 238° |
| 2026-05-07 00:42 | 37.16488 | -76.64614 | 21963 ft | 311 kts | 238° |
| 2026-05-07 00:42 | 37.15138 | -76.66714 | 21917 ft | 302 kts | 238° |
| 2026-05-07 00:43 | 37.13833 | -76.68733 | 21824 ft | 296 kts | 238° |
| 2026-05-07 00:43 | 37.12521 | -76.70777 | 21586 ft | 304 kts | 238° |
| 2026-05-07 00:43 | 37.11191 | -76.72849 | 21302 ft | 306 kts | 238° |
| 2026-05-07 00:43 | 37.09857 | -76.74923 | 20995 ft | 305 kts | 238° |
| 2026-05-07 00:44 | 37.08528 | -76.76985 | 20661 ft | 304 kts | 237° |
| 2026-05-07 00:44 | 37.07201 | -76.79041 | 20361 ft | 303 kts | 237° |
| 2026-05-07 00:44 | 37.05877 | -76.81092 | 20069 ft | 302 kts | 237° |
| 2026-05-07 00:44 | 37.04574 | -76.83110 | 19784 ft | 301 kts | 237° |
| 2026-05-07 00:45 | 37.03241 | -76.85174 | 19487 ft | 300 kts | 237° |
| 2026-05-07 00:45 | 37.01948 | -76.87176 | 19205 ft | 299 kts | 237° |
| 2026-05-07 00:45 | 37.00639 | -76.89199 | 18917 ft | 298 kts | 237° |
| 2026-05-07 00:45 | 36.99334 | -76.91215 | 18645 ft | 297 kts | 237° |
| 2026-05-07 00:46 | 36.98032 | -76.93223 | 18360 ft | 297 kts | 238° |
| 2026-05-07 00:46 | 36.96733 | -76.95226 | 18120 ft | 295 kts | 237° |
| 2026-05-07 00:46 | 36.95447 | -76.97205 | 17771 ft | 293 kts | 237° |
| 2026-05-07 00:46 | 36.94160 | -76.99186 | 17341 ft | 293 kts | 237° |
| 2026-05-07 00:47 | 36.92872 | -77.01167 | 16941 ft | 293 kts | 237° |
| 2026-05-07 00:47 | 36.91589 | -77.03139 | 16576 ft | 292 kts | 237° |
| 2026-05-07 00:47 | 36.90310 | -77.05102 | 16224 ft | 290 kts | 236° |
| 2026-05-07 00:47 | 36.89038 | -77.07056 | 15894 ft | 289 kts | 236° |
| 2026-05-07 00:48 | 36.87771 | -77.09001 | 15539 ft | 288 kts | 236° |
| 2026-05-07 00:48 | 36.86504 | -77.10943 | 15190 ft | 287 kts | 236° |
| 2026-05-07 00:48 | 36.85246 | -77.12872 | 14874 ft | 286 kts | 236° |
| 2026-05-07 00:48 | 36.83990 | -77.14795 | 14542 ft | 285 kts | 235° |
| 2026-05-07 00:49 | 36.82740 | -77.16709 | 14224 ft | 284 kts | 235° |
| 2026-05-07 00:49 | 36.81492 | -77.18619 | 13898 ft | 283 kts | 235° |
| 2026-05-07 00:49 | 36.80249 | -77.20518 | 13548 ft | 282 kts | 234° |
| 2026-05-07 00:49 | 36.79010 | -77.22409 | 13241 ft | 281 kts | 234° |
| 2026-05-07 00:50 | 36.77766 | -77.24278 | 12928 ft | 279 kts | 234° |
| 2026-05-07 00:50 | 36.76525 | -77.26128 | 12621 ft | 277 kts | 234° |
| 2026-05-07 00:50 | 36.75288 | -77.27969 | 12307 ft | 276 kts | 234° |
| 2026-05-07 00:50 | 36.74058 | -77.29797 | 12014 ft | 275 kts | 233° |
| 2026-05-07 00:51 | 36.72833 | -77.31615 | 11698 ft | 273 kts | 234° |
| 2026-05-07 00:51 | 36.71630 | -77.33402 | 11400 ft | 272 kts | 233° |
| 2026-05-07 00:51 | 36.70418 | -77.35204 | 11107 ft | 270 kts | 234° |
| 2026-05-07 00:51 | 36.69215 | -77.36993 | 10811 ft | 269 kts | 233° |
| 2026-05-07 00:52 | 36.68016 | -77.38775 | 10516 ft | 268 kts | 233° |
| 2026-05-07 00:52 | 36.66817 | -77.40553 | 10223 ft | 267 kts | 233° |
| 2026-05-07 00:52 | 36.65625 | -77.42320 | 9942 ft | 266 kts | 233° |
| 2026-05-07 00:52 | 36.64443 | -77.44074 | 9710 ft | 261 kts | 233° |
| 2026-05-07 00:53 | 36.63291 | -77.45783 | 9523 ft | 255 kts | 233° |
| 2026-05-07 00:53 | 36.62153 | -77.47465 | 9227 ft | 254 kts | 233° |
| 2026-05-07 00:53 | 36.61013 | -77.49155 | 8822 ft | 257 kts | 233° |
| 2026-05-07 00:53 | 36.59860 | -77.50864 | 8466 ft | 258 kts | 233° |
| 2026-05-07 00:54 | 36.58701 | -77.52578 | 8134 ft | 258 kts | 233° |
| 2026-05-07 00:54 | 36.57543 | -77.54290 | 7823 ft | 258 kts | 233° |
| 2026-05-07 00:54 | 36.56386 | -77.56002 | 7518 ft | 258 kts | 233° |
| 2026-05-07 00:54 | 36.55237 | -77.57706 | 7236 ft | 256 kts | 233° |
| 2026-05-07 00:55 | 36.54106 | -77.59375 | 6940 ft | 255 kts | 233° |
| 2026-05-07 00:55 | 36.52962 | -77.61062 | 6640 ft | 255 kts | 233° |
| 2026-05-07 00:55 | 36.51822 | -77.62741 | 6356 ft | 253 kts | 233° |
| 2026-05-07 00:55 | 36.50690 | -77.64411 | 6102 ft | 251 kts | 233° |
| 2026-05-07 00:56 | 36.49579 | -77.66046 | 6041 ft | 244 kts | 233° |
| 2026-05-07 00:56 | 36.48483 | -77.67655 | 5992 ft | 245 kts | 233° |
| 2026-05-07 00:56 | 36.47374 | -77.69290 | 5992 ft | 249 kts | 233° |
| 2026-05-07 00:56 | 36.46247 | -77.70951 | 5999 ft | 253 kts | 233° |
| 2026-05-07 00:57 | 36.45110 | -77.72624 | 5989 ft | 252 kts | 233° |
| 2026-05-07 00:57 | 36.44361 | -77.73727 | 5995 ft | 251 kts | 233° |
| 2026-05-07 00:57 | 36.43237 | -77.75377 | 5996 ft | 250 kts | 233° |
| 2026-05-07 00:57 | 36.42119 | -77.77017 | 5982 ft | 248 kts | 233° |
| 2026-05-07 00:58 | 36.41008 | -77.78652 | 5981 ft | 248 kts | 233° |
| 2026-05-07 00:58 | 36.39896 | -77.80284 | 5988 ft | 247 kts | 233° |
| 2026-05-07 00:58 | 36.38787 | -77.81909 | 5980 ft | 247 kts | 233° |
| 2026-05-07 00:58 | 36.37688 | -77.83520 | 5971 ft | 242 kts | 233° |
| 2026-05-07 00:59 | 36.35522 | -77.86691 | 5982 ft | 239 kts | 233° |
| 2026-05-07 00:59 | 36.34451 | -77.88259 | 5971 ft | 237 kts | 233° |
| 2026-05-07 00:59 | 36.33385 | -77.89819 | 5976 ft | 237 kts | 233° |
| 2026-05-07 01:00 | 36.32297 | -77.91413 | 5976 ft | 247 kts | 233° |
| 2026-05-07 01:00 | 36.31177 | -77.93051 | 5976 ft | 251 kts | 233° |
| 2026-05-07 01:00 | 36.30045 | -77.94707 | 5970 ft | 252 kts | 233° |
| 2026-05-07 01:00 | 36.28914 | -77.96358 | 5971 ft | 251 kts | 233° |
| 2026-05-07 01:01 | 36.27782 | -77.98010 | 5969 ft | 251 kts | 233° |
| 2026-05-07 01:01 | 36.26656 | -77.99657 | 5969 ft | 251 kts | 233° |
| 2026-05-07 01:01 | 36.25528 | -78.01302 | 5963 ft | 250 kts | 233° |
| 2026-05-07 01:01 | 36.24401 | -78.02943 | 5967 ft | 249 kts | 233° |
| 2026-05-07 01:02 | 36.23297 | -78.04566 | 5973 ft | 248 kts | 235° |
| 2026-05-07 01:02 | 36.22443 | -78.06378 | 5982 ft | 243 kts | 247° |
| 2026-05-07 01:02 | 36.21755 | -78.08297 | 5989 ft | 245 kts | 248° |
| 2026-05-07 01:02 | 36.21067 | -78.10232 | 5985 ft | 246 kts | 248° |
| 2026-05-07 01:03 | 36.20399 | -78.12189 | 5982 ft | 247 kts | 249° |
| 2026-05-07 01:03 | 36.19750 | -78.14166 | 5976 ft | 249 kts | 249° |
| 2026-05-07 01:03 | 36.19098 | -78.16151 | 5985 ft | 249 kts | 249° |
| 2026-05-07 01:03 | 36.18442 | -78.18136 | 5985 ft | 249 kts | 249° |
| 2026-05-07 01:04 | 36.17781 | -78.20119 | 5988 ft | 249 kts | 249° |
| 2026-05-07 01:04 | 36.17187 | -78.21898 | 5999 ft | 249 kts | 249° |
| 2026-05-07 01:04 | 36.16525 | -78.23874 | 5991 ft | 249 kts | 249° |
| 2026-05-07 01:04 | 36.15865 | -78.25836 | 5973 ft | 242 kts | 249° |
| 2026-05-07 01:05 | 36.15241 | -78.27686 | 5827 ft | 224 kts | 249° |
| 2026-05-07 01:05 | 36.14769 | -78.29458 | 5630 ft | 215 kts | 257° |
| 2026-05-07 01:05 | 36.14459 | -78.31249 | 5576 ft | 211 kts | 258° |
| 2026-05-07 01:05 | 36.14164 | -78.33014 | 5546 ft | 207 kts | 258° |
| 2026-05-07 01:06 | 36.13870 | -78.34744 | 5524 ft | 203 kts | 258° |
| 2026-05-07 01:06 | 36.13575 | -78.36437 | 5465 ft | 200 kts | 258° |
| 2026-05-07 01:06 | 36.13279 | -78.38116 | 5333 ft | 200 kts | 258° |
| 2026-05-07 01:06 | 36.12981 | -78.39789 | 5228 ft | 199 kts | 257° |
| 2026-05-07 01:07 | 36.12681 | -78.41464 | 5124 ft | 198 kts | 257° |
| 2026-05-07 01:07 | 36.12321 | -78.43103 | 5060 ft | 198 kts | 252° |
| 2026-05-07 01:07 | 36.11858 | -78.44707 | 5015 ft | 197 kts | 251° |
| 2026-05-07 01:07 | 36.11375 | -78.46270 | 5017 ft | 198 kts | 250° |
| 2026-05-07 01:08 | 36.10783 | -78.47824 | 5008 ft | 201 kts | 243° |
| 2026-05-07 01:08 | 36.10079 | -78.49324 | 5019 ft | 202 kts | 242° |
| 2026-05-07 01:08 | 36.09367 | -78.50821 | 4957 ft | 200 kts | 242° |
| 2026-05-07 01:08 | 36.08668 | -78.52273 | 4765 ft | 194 kts | 241° |
| 2026-05-07 01:09 | 36.07977 | -78.53714 | 4299 ft | 198 kts | 241° |
| 2026-05-07 01:09 | 36.07271 | -78.55199 | 4088 ft | 199 kts | 239° |
| 2026-05-07 01:09 | 36.06421 | -78.56562 | 3916 ft | 200 kts | 230° |
| 2026-05-07 01:09 | 36.05479 | -78.57802 | 3892 ft | 197 kts | 229° |
| 2026-05-07 01:10 | 36.04522 | -78.59004 | 3789 ft | 196 kts | 228° |
| 2026-05-07 01:10 | 36.03563 | -78.60199 | 3665 ft | 196 kts | 229° |
| 2026-05-07 01:10 | 36.02597 | -78.61401 | 3497 ft | 197 kts | 228° |
| 2026-05-07 01:10 | 36.01635 | -78.62598 | 3449 ft | 195 kts | 227° |
| 2026-05-07 01:11 | 36.00687 | -78.63776 | 3400 ft | 192 kts | 227° |
| 2026-05-07 01:11 | 35.99735 | -78.64959 | 3206 ft | 197 kts | 228° |
| 2026-05-07 01:11 | 35.98767 | -78.66162 | 2960 ft | 197 kts | 227° |
| 2026-05-07 01:11 | 35.97800 | -78.67362 | 2721 ft | 197 kts | 227° |
| 2026-05-07 01:12 | 35.96845 | -78.68551 | 2441 ft | 189 kts | 226° |
| 2026-05-07 01:12 | 35.95966 | -78.69642 | 2178 ft | 170 kts | 227° |
| 2026-05-07 01:12 | 35.95166 | -78.70635 | 2030 ft | 161 kts | 227° |
| 2026-05-07 01:12 | 35.94416 | -78.71564 | 1814 ft | 145 kts | 226° |
| 2026-05-07 01:13 | 35.93757 | -78.72381 | 1614 ft | 122 kts | 226° |
| 2026-05-07 01:13 | 35.93183 | -78.73095 | 1512 ft | 121 kts | 226° |
| 2026-05-07 01:13 | 35.92572 | -78.73853 | 1338 ft | 126 kts | 225° |
| 2026-05-07 01:13 | 35.91935 | -78.74642 | 1157 ft | 135 kts | 225° |
| 2026-05-07 01:14 | 35.91266 | -78.75471 | 954 ft | 135 kts | 224° |
| 2026-05-07 01:14 | 35.90602 | -78.76295 | 813 ft | 136 kts | 225° |
| 2026-05-07 01:14 | 35.89924 | -78.77144 | 630 ft | 141 kts | 222° |
| 2026-05-07 01:14 | 35.89230 | -78.77990 | 430 ft | 139 kts | 223° |
| 2026-05-07 01:15 | 35.88604 | -78.78762 | 417 ft | 109 kts | 225° |
| 2026-05-07 01:15 | 35.88187 | -78.79277 | 424 ft | 74 kts | 225° |
| 2026-05-07 01:15 | 35.87970 | -78.79477 | 417 ft | 14 kts | 180° |
| 2026-05-07 01:15 | 35.87937 | -78.79462 | 426 ft | 0 kts | 143° |
| 2026-05-07 01:16 | 35.87934 | -78.79459 | 426 ft | 0 kts | 144° |
| 2026-05-07 01:16 | 35.87930 | -78.79456 | 427 ft | 1 kts | 144° |
| 2026-05-07 01:17 | 35.87925 | -78.79441 | 423 ft | 0 kts | 110° |
| 2026-05-07 01:17 | 35.87905 | -78.79439 | 418 ft | 6 kts | 203° |
| 2026-05-07 01:17 | 35.87851 | -78.79507 | 425 ft | 8 kts | 225° |
| 2026-05-07 01:17 | 35.87771 | -78.79606 | 426 ft | 19 kts | 224° |
| 2026-05-07 01:18 | 35.87698 | -78.79696 | 417 ft | 21 kts | 227° |
| 2026-05-07 01:18 | 35.87606 | -78.79821 | 420 ft | 3 kts | 218° |
| 2026-05-07 01:18 | 35.87555 | -78.79826 | 426 ft | 9 kts | 148° |
| 2026-05-07 01:18 | 35.87503 | -78.79773 | 425 ft | 15 kts | 137° |
| 2026-05-07 01:19 | 35.87432 | -78.79686 | 423 ft | 18 kts | 131° |
| 2026-05-07 01:19 | 35.87450 | -78.79574 | 421 ft | 13 kts | 47° |
| 2026-05-07 01:19 | 35.87521 | -78.79486 | 424 ft | 8 kts | 26° |
| 2026-05-07 01:19 | 35.87542 | -78.79500 | 420 ft | 6 kts | 319° |
| 2026-05-07 01:20 | 35.87552 | -78.79511 | 419 ft | 0 kts | 318° |